Data for 10/15/2018

Time Sea-Level Adjusted Pressure Absolute Pressure Temperature Relative Humidity Dew Point   
(mb) (inHg) (mb) (inHg) (C) (F) (%) (C) (F)
00:05 1027 30.33 856 25.28 -2.9 26.7 65 -8.7 16.4
00:10 1027 30.33 856 25.28 -3 26.5 65 -8.6 16.5
00:15 1027 30.33 856 25.28 -3.2 26.3 66 -8.7 16.4
00:20 1027 30.33 856 25.28 -3.3 26.1 66 -8.8 16.1
00:25 1027 30.33 856 25.28 -3.3 26.1 66 -8.8 16.1
00:30 1027 30.33 856 25.28 -3.3 26.1 66 -8.8 16.2
00:35 1027 30.33 856 25.28 -3.4 26 66 -8.9 16.1
00:40 1027 30.33 856 25.28 -3.3 26.1 66 -8.8 16.2
00:45 1027 30.33 856 25.28 -3.5 25.8 67 -8.7 16.3
00:50 1027 30.33 856 25.28 -3.5 25.6 66 -9 15.8
00:55 1027 30.33 856 25.28 -3 26.6 63 -9 15.7
01:00 1027 30.33 856 25.28 -2.8 26.9 63 -8.8 16.1
01:05 1027 30.33 856 25.28 -3 26.6 65 -8.7 16.3
01:10 1027 30.33 856 25.28 -3 26.6 65 -8.7 16.3
01:15 1027 30.33 856 25.28 -2.9 26.8 64 -8.7 16.3
01:20 1027 30.33 856 25.28 -2.8 26.9 64 -8.7 16.4
01:25 1027 30.33 856 25.28 -2.9 26.8 64 -8.7 16.3
01:30 1027 30.33 856 25.28 -2.9 26.8 63 -8.9 16
01:35 1027 30.33 856 25.28 -2.9 26.8 65 -8.6 16.4
01:40 1027 30.33 856 25.28 -3.3 26 66 -8.7 16.4
01:45 1027 30.33 856 25.28 -3.5 25.7 67 -8.7 16.3
01:50 1027 30.33 856 25.28 -3.4 25.8 67 -8.7 16.3
01:55 1027 30.33 856 25.28 -3.4 25.9 67 -8.7 16.3
02:00 1027 30.33 856 25.28 -3.1 26.4 65 -8.8 16.2
02:05 1027 30.33 856 25.28 -3 26.7 64 -8.8 16.1
02:10 1027 30.33 856 25.28 -2.9 26.8 64 -8.7 16.3
02:15 1027 30.33 856 25.28 -2.7 27.2 62 -9 15.8
02:20 1027 30.33 856 25.28 -2.5 27.6 62 -8.8 16.1
02:25 1027 30.33 856 25.28 -2.7 27.2 63 -8.7 16.3
02:30 1027 30.33 856 25.28 -2.8 26.9 64 -8.8 16.1
02:35 1027 30.33 856 25.28 -3 26.6 65 -8.7 16.4
02:40 1027 30.33 856 25.28 -3.3 26.1 66 -8.7 16.4
02:45 1027 30.33 856 25.28 -3.4 26 66 -8.8 16.2
02:50 1027 30.33 856 25.28 -3.2 26.3 65 -8.9 16.1
02:55 1027 30.33 856 25.28 -3.1 26.4 66 -8.6 16.5
03:00 1027 30.33 856 25.28 -3.5 25.7 69 -8.4 16.8
03:05 1027 30.33 856 25.28 -3.6 25.5 67 -8.8 16.1
03:10 1027 30.33 856 25.28 -3.5 25.6 68 -8.7 16.4
03:15 1027 30.33 856 25.28 -3.5 25.8 67 -8.8 16.2
03:20 1027 30.33 856 25.28 -3.2 26.3 66 -8.7 16.3
03:25 1027 30.33 856 25.28 -3.1 26.4 66 -8.6 16.5
03:30 1027 30.33 856 25.28 -3.3 26.1 67 -8.6 16.5
03:35 1027 30.33 856 25.28 -3.8 25.2 69 -8.6 16.6
03:40 1027 30.33 856 25.28 -4.2 24.5 70 -8.9 16
03:45 1027 30.33 856 25.28 -3.8 25.2 68 -8.9 16.1
03:50 1027 30.33 856 25.28 -3.4 25.8 67 -8.7 16.4
03:55 1027 30.33 856 25.28 -3.1 26.5 65 -8.7 16.4
04:00 1027 30.33 856 25.28 -2.8 26.9 64 -8.7 16.4
04:05 1027 30.33 856 25.28 -2.7 27.1 65 -8.4 16.9
04:10 1027 30.33 856 25.28 -3 26.7 66 -8.5 16.8
04:15 1027 30.33 856 25.28 -3.1 26.4 67 -8.5 16.8
04:20 1027 30.33 856 25.28 -3.5 25.7 69 -8.4 16.8
04:25 1027 30.33 856 25.28 -3.7 25.4 70 -8.5 16.8
04:30 1027 30.33 856 25.28 -3.5 25.7 69 -8.4 16.9
04:35 1027 30.33 856 25.28 -3.5 25.7 68 -8.6 16.6
04:40 1027 30.33 856 25.28 -3.4 26 67 -8.6 16.4
04:45 1027 30.33 856 25.28 -3.5 25.7 68 -8.6 16.5
04:50 1027 30.33 856 25.28 -3.6 25.5 68 -8.7 16.3
04:55 1027 30.33 856 25.28 -3.7 25.3 69 -8.6 16.5
05:00 1027 30.33 857 25.31 -3.9 25 70 -8.6 16.5
05:05 1028 30.36 857 25.31 -3.9 24.9 70 -8.6 16.5
05:10 1028 30.36 857 25.31 -3.9 25 70 -8.5 16.6
05:15 1028 30.36 857 25.31 -3.7 25.4 70 -8.5 16.7
05:20 1028 30.36 857 25.31 -3.5 25.8 69 -8.3 17
05:25 1028 30.36 857 25.31 -3.3 26 69 -8.3 17.1
05:30 1028 30.36 857 25.31 -3.3 26.1 68 -8.3 17
05:35 1028 30.36 857 25.31 -3.1 26.4 69 -8 17.6
05:40 1028 30.36 857 25.31 -3.1 26.4 70 -7.9 17.8
05:45 1028 30.36 857 25.31 -3.1 26.4 70 -7.8 18
05:50 1028 30.36 857 25.31 -2.9 26.8 70 -7.6 18.3
05:55 1028 30.36 857 25.31 -2.5 27.5 70 -7.3 18.9
06:00 1028 30.36 857 25.31 -2.3 27.9 68 -7.5 18.5
06:05 1028 30.36 857 25.31 -2.2 28.1 67 -7.6 18.3
06:10 1028 30.36 857 25.31 -2 28.4 65 -7.7 18.1
06:15 1028 30.36 857 25.31 -1.7 28.9 65 -7.5 18.6
06:20 1028 30.36 857 25.31 -1.6 29 66 -7.1 19.1
06:25 1028 30.36 857 25.31 -1.8 28.8 67 -7.1 19.3
06:30 1028 30.36 857 25.31 -2.1 28.3 69 -7 19.4
06:35 1028 30.36 857 25.31 -2.1 28.3 70 -6.8 19.8
06:40 1028 30.36 857 25.31 -2.1 28.2 71 -6.7 19.9
06:45 1028 30.36 857 25.31 -1.9 28.7 67 -7.1 19.2
06:50 1028 30.36 857 25.31 -1.6 29.1 68 -6.8 19.7
06:55 1028 30.36 857 25.31 -1.4 29.4 66 -6.9 19.5
07:00 1028 30.36 858 25.34 -1.3 29.6 68 -6.5 20.2
07:05 1028 30.36 858 25.34 -1.3 29.7 68 -6.3 20.6
07:10 1028 30.36 858 25.34 -1.3 29.6 70 -6.1 21
07:15 1028 30.36 858 25.34 -1.5 29.2 71 -6.1 21.1
07:20 1028 30.36 858 25.34 -2 28.4 72 -6.4 20.5
07:25 1028 30.36 858 25.34 -2.3 27.8 73 -6.5 20.3
07:30 1028 30.36 858 25.34 -2.3 27.9 75 -6.2 20.8
07:35 1029 30.39 858 25.34 -2.2 28.1 73 -6.3 20.6
07:40 1028 30.36 858 25.34 -2.1 28.2 73 -6.3 20.6
07:45 1028 30.36 858 25.34 -2 28.5 70 -6.8 19.8
07:50 1029 30.39 858 25.34 -1.4 29.4 68 -6.7 20
07:55 1029 30.39 858 25.34 -1.4 29.5 67 -6.7 20
08:00 1029 30.39 858 25.34 -1.5 29.3 70 -6.4 20.6
08:05 1029 30.39 858 25.34 -1 30.1 65 -6.7 19.9
08:10 1029 30.39 858 25.34 -0.6 31 62 -6.9 19.7
08:15 1029 30.39 858 25.34 -0.2 31.6 61 -6.8 19.7
08:20 1029 30.39 858 25.34 -0.5 31.1 63 -6.7 20
08:25 1029 30.39 858 25.34 -0.7 30.8 63 -6.9 19.6
08:30 1029 30.39 858 25.34 -0.5 31 63 -6.7 19.9
08:35 1029 30.39 858 25.34 -0.3 31.5 60 -7.1 19.2
08:40 1029 30.39 858 25.34 0.1 32.1 58 -7.1 19.1
08:45 1029 30.39 858 25.34 0.3 32.6 56 -7.4 18.7
08:50 1029 30.39 858 25.34 0.3 32.6 56 -7.5 18.4
08:55 1029 30.39 858 25.34 0.2 32.3 61 -6.5 20.3
09:00 1029 30.39 858 25.34 -0.1 31.8 62 -6.4 20.4
09:05 1029 30.39 858 25.34 -0.3 31.4 64 -6.4 20.5
09:10 1029 30.39 858 25.34 -0.2 31.6 62 -6.5 20.2
09:15 1029 30.39 858 25.34 0 32.1 62 -6.4 20.4
09:20 1029 30.39 858 25.34 0.3 32.5 61 -6.3 20.6
09:25 1029 30.39 858 25.34 0.5 33 63 -5.8 21.5
09:30 1029 30.39 858 25.34 0.9 33.6 62 -5.6 22
09:35 1029 30.39 858 25.34 0.8 33.4 65 -5.1 22.9
09:40 1029 30.39 858 25.34 0.8 33.4 65 -5 23
09:45 1029 30.39 858 25.34 0.8 33.4 66 -4.9 23.2
09:50 1029 30.39 859 25.37 1.4 34.4 64 -4.8 23.4
09:55 1029 30.39 859 25.37 2.2 35.9 60 -4.8 23.4
10:00 1029 30.39 859 25.37 2.4 36.3 59 -4.9 23.2
10:05 1029 30.39 859 25.37 2.6 36.7 58 -4.9 23.1
10:10 1029 30.39 859 25.37 2.9 37.1 57 -4.8 23.3
10:15 1029 30.39 859 25.37 3.2 37.7 57 -4.6 23.8
10:20 1029 30.39 859 25.37 3.6 38.5 55 -4.5 23.9
10:25 1029 30.39 859 25.37 4.1 39.4 52 -4.8 23.4
10:30 1029 30.39 859 25.37 4.5 40 50 -5.2 22.7
10:35 1029 30.39 859 25.37 4.7 40.5 48 -5.3 22.4
10:40 1029 30.39 859 25.37 4.8 40.7 52 -4.3 24.3
10:45 1029 30.39 859 25.37 4.5 40 52 -4.6 23.7
10:50 1029 30.39 859 25.37 4.6 40.3 51 -4.7 23.5
10:55 1029 30.39 859 25.37 4.8 40.6 47 -5.4 22.2
11:00 1029 30.39 859 25.37 5.2 41.4 46 -5.5 22.1
11:05 1029 30.39 858 25.34 5.5 41.8 46 -5.2 22.7
11:10 1029 30.39 858 25.34 5.7 42.3 42 -6.2 20.8
11:15 1029 30.39 858 25.34 5.8 42.4 42 -6.3 20.7
11:20 1029 30.39 858 25.34 6.3 43.4 40 -6.3 20.6
11:25 1029 30.39 859 25.37 6.6 43.8 40 -6.1 21
11:30 1029 30.39 859 25.37 6.9 44.5 39 -6.2 20.8
11:35 1029 30.39 858 25.34 7.5 45.4 37 -6.2 20.8
11:40 1029 30.39 858 25.34 7.7 45.9 37 -5.9 21.3
11:45 1029 30.39 859 25.37 7.8 46 36 -6.2 20.8
11:50 1029 30.39 858 25.34 7.1 44.9 38 -6.2 20.8
11:55 1029 30.39 858 25.34 6.5 43.7 41 -5.9 21.5
12:00 1029 30.39 858 25.34 7.1 44.7 34 -7.9 17.8
12:05 1029 30.39 858 25.34 7.3 45.2 38 -6.2 20.9
12:10 1029 30.39 858 25.34 6.8 44.3 34 -7.8 17.9
12:15 1029 30.39 858 25.34 7.5 45.5 32 -8.2 17.2
12:20 1029 30.39 858 25.34 7.8 46 33 -7.7 18.2
12:25 1029 30.39 858 25.34 7.5 45.5 33 -7.8 18
12:30 1029 30.39 858 25.34 6.9 44.5 33 -8.4 17
12:35 1029 30.39 858 25.34 6.6 43.8 35 -7.8 17.9
12:40 1029 30.39 858 25.34 6.6 43.9 33 -8.4 16.9
12:45 1029 30.39 858 25.34 6.6 43.9 33 -8.6 16.5
12:50 1029 30.39 858 25.34 7.9 46.2 31 -8.3 17
12:55 1029 30.39 858 25.34 7.7 45.8 31 -8.3 17
13:00 1029 30.39 858 25.34 7.2 45 35 -7.1 19.3
13:05 1029 30.39 858 25.34 7.7 45.9 33 -7.7 18.1
13:10 1029 30.39 858 25.34 8.2 46.8 33 -7 19.3
13:15 1029 30.39 858 25.34 8.7 47.7 32 -7.1 19.1
13:20 1029 30.39 858 25.34 8.8 47.8 31 -7.6 18.3
13:25 1029 30.39 858 25.34 9.1 48.4 30 -7.5 18.5
13:30 1029 30.39 858 25.34 9.2 48.6 31 -7.2 19
13:35 1029 30.39 858 25.34 9.5 49.1 29 -7.5 18.6
13:40 1029 30.39 858 25.34 9.3 48.7 30 -7.5 18.4
13:45 1029 30.39 858 25.34 9.2 48.6 30 -7.3 18.9
13:50 1029 30.39 858 25.34 8.5 47.4 33 -6.9 19.6
13:55 1028 30.36 858 25.34 6.9 44.4 35 -7.7 18.1
14:00 1029 30.39 858 25.34 7.1 44.7 33 -8.1 17.5
14:05 1029 30.39 858 25.34 7 44.6 36 -7.2 19
14:10 1028 30.36 858 25.34 6.7 44.1 34 -8 17.6
14:15 1028 30.36 858 25.34 7.3 45.1 34 -7.5 18.5
14:20 1028 30.36 857 25.31 7.9 46.1 32 -7.7 18.2
14:25 1028 30.36 857 25.31 7.9 46.2 34 -7.1 19.3
14:30 1028 30.36 857 25.31 7.4 45.3 35 -7.2 19
14:35 1028 30.36 857 25.31 7.4 45.4 34 -7.5 18.5
14:40 1028 30.36 857 25.31 7.8 46.1 33 -7.6 18.3
14:45 1028 30.36 857 25.31 7.9 46.2 32 -7.7 18.1
14:50 1028 30.36 857 25.31 8.1 46.6 31 -7.8 17.9
14:55 1028 30.36 857 25.31 8.4 47.2 32 -7.5 18.5
15:00 1028 30.36 857 25.31 8.3 47 30 -8.2 17.3
15:05 1028 30.36 857 25.31 9.1 48.3 30 -7.4 18.6
15:10 1028 30.36 857 25.31 9.2 48.5 30 -7.5 18.5
15:15 1028 30.36 857 25.31 9.2 48.6 30 -7.3 18.8
15:20 1028 30.36 857 25.31 9.1 48.4 30 -7.3 18.8
15:25 1028 30.36 857 25.31 9.2 48.5 31 -7.1 19.2
15:30 1028 30.36 857 25.31 9.4 48.8 31 -7 19.3
15:35 1028 30.36 857 25.31 9.3 48.7 31 -7 19.3
15:40 1028 30.36 857 25.31 9.1 48.3 30 -7.6 18.4
15:45 1028 30.36 857 25.31 9 48.3 30 -7.4 18.6
15:50 1028 30.36 857 25.31 9.3 48.7 31 -7 19.4
15:55 1028 30.36 857 25.31 9 48.1 31 -7.2 19
16:00 1028 30.36 857 25.31 8.2 46.8 36 -6.1 21
16:05 1028 30.36 857 25.31 8.4 47 32 -7.3 18.9
16:10 1028 30.36 857 25.31 8.2 46.8 33 -7.3 18.9
16:15 1028 30.36 857 25.31 8 46.5 33 -7.2 19.1
16:20 1028 30.36 857 25.31 8.2 46.7 33 -7.3 18.8
16:25 1028 30.36 857 25.31 8.1 46.5 32 -7.6 18.3
16:30 1028 30.36 857 25.31 8.4 47.2 32 -7.3 18.9
16:35 1028 30.36 857 25.31 8.7 47.7 31 -7.3 18.9
16:40 1028 30.36 857 25.31 8.7 47.7 33 -6.7 19.9
16:45 1028 30.36 857 25.31 8.5 47.4 34 -6.6 20.1
16:50 1028 30.36 857 25.31 8.5 47.3 33 -7 19.3
16:55 1028 30.36 857 25.31 8.8 47.9 32 -7.2 19.1
17:00 1028 30.36 857 25.31 8.9 48.1 31 -7.3 18.9
17:05 1028 30.36 857 25.31 9 48.2 31 -7.1 19.2
17:10 1028 30.36 857 25.31 8.3 46.9 35 -6.4 20.5
17:15 1028 30.36 857 25.31 7.3 45.1 39 -5.9 21.4
17:20 1028 30.36 857 25.31 6.4 43.6 41 -5.8 21.6
17:25 1028 30.36 857 25.31 6 42.7 43 -5.6 22
17:30 1028 30.36 857 25.31 5.4 41.8 47 -5 22.9
17:35 1028 30.36 857 25.31 5.3 41.6 49 -4.4 24
17:40 1028 30.36 857 25.31 4.9 40.9 52 -4 24.7
17:45 1028 30.36 857 25.31 4.4 39.8 54 -4.1 24.7
17:50 1028 30.36 857 25.31 3.9 39 57 -3.9 25
17:55 1028 30.36 857 25.31 3.7 38.6 59 -3.7 25.4
18:00 1028 30.36 857 25.31 3.4 38.1 61 -3.4 25.9
18:05 1028 30.36 857 25.31 3.2 37.7 63 -3.2 26.2
18:10 1028 30.36 857 25.31 3 37.4 64 -3.2 26.3
18:15 1028 30.36 857 25.31 3 37.4 64 -3.1 26.3
18:20 1028 30.36 857 25.31 3.1 37.6 64 -3 26.6
18:25 1027 30.33 857 25.31 3 37.5 65 -3 26.7
18:30 1027 30.33 857 25.31 3.1 37.6 66 -2.7 27.2
18:35 1027 30.33 857 25.31 3.2 37.7 66 -2.6 27.4
18:40 1028 30.36 857 25.31 3.2 37.7 67 -2.4 27.6
18:45 1028 30.36 857 25.31 3.1 37.5 68 -2.3 27.9
18:50 1028 30.36 857 25.31 2.8 37 69 -2.3 27.9
18:55 1028 30.36 857 25.31 2.5 36.5 69 -2.7 27.1
19:00 1028 30.36 857 25.31 2.4 36.4 68 -2.9 26.8
19:05 1028 30.36 857 25.31 2.3 36.1 66 -3.5 25.7
19:10 1027 30.33 857 25.31 2.2 36 64 -3.9 25
19:15 1027 30.33 857 25.31 2.6 36.7 62 -3.9 24.9
19:20 1027 30.33 857 25.31 2.6 36.7 62 -4 24.8
19:25 1027 30.33 857 25.31 2.5 36.6 63 -3.7 25.3
19:30 1027 30.33 857 25.31 2.1 35.8 63 -4.1 24.6
19:35 1027 30.33 857 25.31 2 35.7 64 -4.1 24.6
19:40 1027 30.33 857 25.31 2.4 36.4 58 -4.9 23.1
19:45 1027 30.33 857 25.31 2.5 36.4 64 -3.6 25.5
19:50 1027 30.33 857 25.31 2.1 35.8 66 -3.5 25.6
19:55 1027 30.33 857 25.31 2 35.6 67 -3.4 25.9
20:00 1027 30.33 857 25.31 1.7 35.1 69 -3.4 25.8
20:05 1027 30.33 857 25.31 1.5 34.8 67 -3.9 25
20:10 1027 30.33 857 25.31 1.4 34.6 65 -4.3 24.2
20:15 1027 30.33 857 25.31 1.6 34.9 63 -4.7 23.5
20:20 1027 30.33 857 25.31 2 35.5 62 -4.6 23.7
20:25 1027 30.33 857 25.31 1.9 35.4 62 -4.7 23.5
20:30 1027 30.33 857 25.31 2.1 35.9 64 -4 24.7
20:35 1027 30.33 857 25.31 2.4 36.3 62 -4.1 24.6
20:40 1028 30.36 857 25.31 2 35.7 64 -4 24.8
20:45 1028 30.36 857 25.31 1.9 35.5 63 -4.3 24.2
20:50 1028 30.36 857 25.31 2.1 35.8 63 -4.2 24.4
20:55 1028 30.36 857 25.31 2 35.6 66 -3.8 25.2
21:00 1028 30.36 857 25.31 1.7 35.1 67 -3.8 25.1
21:05 1028 30.36 857 25.31 1.7 35 66 -4 24.7
21:10 1028 30.36 857 25.31 1.6 34.9 67 -3.9 25.1
21:15 1028 30.36 857 25.31 1.2 34.2 68 -4 24.7
21:20 1028 30.36 857 25.31 0.9 33.6 68 -4.3 24.2
21:25 1028 30.36 857 25.31 0.9 33.7 68 -4.2 24.4
21:30 1028 30.36 857 25.31 1.2 34.1 65 -4.6 23.6
21:35 1028 30.36 857 25.31 1.1 34 66 -4.6 23.8
21:40 1028 30.36 857 25.31 0.9 33.7 68 -4.3 24.2
21:45 1028 30.36 857 25.31 1.5 34.6 67 -4 24.8
21:50 1028 30.36 857 25.31 1.6 34.9 69 -3.4 25.9
21:55 1028 30.36 857 25.31 1.6 34.9 71 -3.1 26.5
22:00 1028 30.36 857 25.31 1.6 34.8 72 -3 26.6
22:05 1028 30.36 857 25.31 1.6 34.9 73 -2.8 27
22:10 1028 30.36 858 25.34 2 35.7 69 -3 26.6
22:15 1028 30.36 858 25.34 2.2 36 69 -2.8 26.9
22:20 1028 30.36 858 25.34 2.1 35.8 69 -3 26.7
22:25 1028 30.36 858 25.34 2.3 36.1 69 -2.9 26.7
22:30 1028 30.36 858 25.34 2.3 36.2 68 -2.9 26.8
22:35 1028 30.36 858 25.34 2.1 35.7 70 -2.9 26.8
22:40 1028 30.36 857 25.31 1.8 35.3 71 -2.9 26.8
22:45 1028 30.36 857 25.31 1.6 34.8 70 -3.3 26.1
22:50 1028 30.36 857 25.31 1.5 34.8 71 -3.2 26.3
22:55 1028 30.36 857 25.31 1.6 34.8 70 -3.4 25.9
23:00 1028 30.36 857 25.31 1.7 35.1 70 -3.3 26.1
23:05 1028 30.36 857 25.31 1.5 34.7 70 -3.4 25.9
23:10 1028 30.36 857 25.31 1.7 35.1 69 -3.3 26
23:15 1028 30.36 857 25.31 2 35.7 67 -3.4 25.8
23:20 1028 30.36 857 25.31 1.9 35.3 69 -3.3 26.1
23:25 1028 30.36 857 25.31 1.5 34.6 70 -3.4 25.8
23:30 1028 30.36 857 25.31 1.3 34.3 72 -3.2 26.3
23:35 1028 30.36 858 25.34 1 33.8 73 -3.3 26.1
23:40 1028 30.36 858 25.34 0.8 33.5 75 -3.2 26.3
23:45 1028 30.36 858 25.34 0.9 33.6 73 -3.4 25.9
23:50 1028 30.36 858 25.34 1.2 34.2 69 -3.8 25.1
23:55 1028 30.36 858 25.34 1.3 34.3 69 -3.8 25.2
24:00 1028 30.36 858 25.34 1.1 34.1 68 -4.2 24.4